createdAt,value
2022-12-03T00:00:36.089Z,19.42
2022-12-03T00:03:05.080Z,19.88
2022-12-03T00:05:33.807Z,19.00
2022-12-03T00:08:02.560Z,20.27
2022-12-03T00:10:31.469Z,19.63
2022-12-03T00:13:03.922Z,18.40
2022-12-03T00:15:32.713Z,19.55
2022-12-03T00:18:01.910Z,18.77
2022-12-03T00:20:30.608Z,19.25
2022-12-03T00:22:59.269Z,18.25
2022-12-03T00:25:27.954Z,18.08
2022-12-03T00:28:15.000Z,19.23
2022-12-03T00:30:47.020Z,18.50
2022-12-03T00:33:21.634Z,18.35
2022-12-03T00:35:57.582Z,18.70
2022-12-03T00:38:28.532Z,16.75
2022-12-03T00:40:57.080Z,17.30
2022-12-03T00:43:26.094Z,17.00
2022-12-03T00:45:58.447Z,17.17
2022-12-03T00:48:33.035Z,16.95
2022-12-03T00:51:02.763Z,18.45
2022-12-03T00:53:35.783Z,17.40
2022-12-03T00:56:07.383Z,17.35
2022-12-03T00:58:37.979Z,16.95
2022-12-03T01:01:24.195Z,16.70
2022-12-03T01:04:05.635Z,16.77
2022-12-03T01:06:37.555Z,18.45
2022-12-03T01:09:09.525Z,17.80
2022-12-03T01:11:44.481Z,17.13
2022-12-03T01:14:16.800Z,17.00
2022-12-03T01:16:48.580Z,17.95
2022-12-03T01:19:22.484Z,17.77
2022-12-03T01:21:54.175Z,16.42
2022-12-03T01:24:25.687Z,17.45
2022-12-03T01:26:57.940Z,17.20
2022-12-03T01:29:31.000Z,17.05
2022-12-03T01:32:19.541Z,18.02
2022-12-03T01:34:48.895Z,16.73
2022-12-03T01:37:17.399Z,17.00
2022-12-03T01:39:45.976Z,16.63
2022-12-03T01:42:17.686Z,19.13
2022-12-03T01:44:46.864Z,17.65
2022-12-03T01:47:18.323Z,18.52
2022-12-03T01:49:48.352Z,19.10
2022-12-03T01:52:17.747Z,17.58
2022-12-03T01:54:48.555Z,19.48
2022-12-03T01:57:27.976Z,17.73
2022-12-03T01:59:57.432Z,19.10
2022-12-03T02:02:28.186Z,18.45
2022-12-03T02:04:57.091Z,18.42
2022-12-03T02:07:30.237Z,17.50
2022-12-03T02:09:59.703Z,17.60
2022-12-03T02:12:30.597Z,19.27
2022-12-03T02:15:00.299Z,19.15
2022-12-03T02:17:30.256Z,17.55
2022-12-03T02:19:59.273Z,17.02
2022-12-03T02:22:36.156Z,17.35
2022-12-03T02:25:13.807Z,15.68
2022-12-03T02:27:42.433Z,17.45
2022-12-03T02:30:11.869Z,16.15
2022-12-03T02:32:40.498Z,16.98
2022-12-03T02:35:14.675Z,18.40
2022-12-03T02:37:44.005Z,17.83
2022-12-03T02:40:17.085Z,17.38
2022-12-03T02:42:45.455Z,16.52
2022-12-03T02:45:15.691Z,17.55
2022-12-03T02:47:46.381Z,16.67
2022-12-03T02:50:16.553Z,16.65
2022-12-03T02:52:48.642Z,15.75
2022-12-03T02:55:19.415Z,18.35
2022-12-03T02:57:49.564Z,18.90
2022-12-03T03:00:22.515Z,17.75
2022-12-03T03:02:51.865Z,18.67
2022-12-03T03:05:22.267Z,18.75
2022-12-03T03:07:54.162Z,18.75
2022-12-03T03:10:25.822Z,18.08
2022-12-03T03:12:56.105Z,18.55
2022-12-03T03:15:26.294Z,17.60
2022-12-03T03:17:54.971Z,18.30
2022-12-03T03:20:25.311Z,17.15
2022-12-03T03:22:54.328Z,17.90
2022-12-03T03:25:24.979Z,16.98
2022-12-03T03:27:55.140Z,16.42
2022-12-03T03:30:23.797Z,18.33
2022-12-03T03:32:52.714Z,16.63
2022-12-03T03:35:21.555Z,17.75
2022-12-03T03:37:50.835Z,17.27
2022-12-03T03:40:19.567Z,15.90
2022-12-03T03:42:50.157Z,17.30
2022-12-03T03:45:21.639Z,16.85
2022-12-03T03:47:54.380Z,17.70
2022-12-03T03:50:23.009Z,18.08
2022-12-03T03:52:51.722Z,18.35
2022-12-03T03:55:20.811Z,17.75
2022-12-03T03:57:51.072Z,17.60
2022-12-03T04:00:20.326Z,16.85
2022-12-03T04:02:48.954Z,17.35
2022-12-03T04:05:18.543Z,16.55
2022-12-03T04:07:47.102Z,15.95
2022-12-03T04:10:32.891Z,16.88
2022-12-03T04:13:04.816Z,15.27
2022-12-03T04:15:34.160Z,18.20
2022-12-03T04:18:19.937Z,17.30
2022-12-03T04:20:48.571Z,15.15
2022-12-03T04:23:16.326Z,15.93
2022-12-03T04:26:02.288Z,18.05
2022-12-03T04:28:59.620Z,20.48
2022-12-03T04:31:45.787Z,17.90
2022-12-03T04:34:31.872Z,19.85
2022-12-03T04:37:00.404Z,19.70
2022-12-03T04:39:28.926Z,19.77
2022-12-03T04:41:57.700Z,18.95
2022-12-03T04:44:39.750Z,16.13
2022-12-03T04:47:09.719Z,17.33
2022-12-03T04:49:38.955Z,19.05
2022-12-03T04:52:07.985Z,19.02
2022-12-03T04:54:36.600Z,17.08
2022-12-03T04:57:05.970Z,18.30
2022-12-03T04:59:39.472Z,16.58
2022-12-03T05:02:08.712Z,17.60
2022-12-03T05:04:40.522Z,17.33
2022-12-03T05:07:09.079Z,18.25
2022-12-03T05:09:37.856Z,17.98
2022-12-03T05:12:06.949Z,18.45
2022-12-03T05:14:39.862Z,18.08
2022-12-03T05:17:08.706Z,17.73
2022-12-03T05:19:59.996Z,17.33
2022-12-03T05:22:29.111Z,19.40
2022-12-03T05:24:59.384Z,19.85
2022-12-03T05:27:28.020Z,17.70
2022-12-03T05:29:58.277Z,17.45
2022-12-03T05:32:26.854Z,18.35
2022-12-03T05:34:55.911Z,18.00
2022-12-03T05:37:25.030Z,19.35
2022-12-03T05:39:56.735Z,19.17
2022-12-03T05:42:42.820Z,19.40
2022-12-03T05:45:13.557Z,16.48
2022-12-03T05:47:42.085Z,18.35
2022-12-03T05:50:11.773Z,19.20
2022-12-03T05:52:40.295Z,18.30
2022-12-03T05:55:09.479Z,18.92
2022-12-03T05:57:38.092Z,19.52
2022-12-03T06:00:07.901Z,18.73
2022-12-03T06:02:38.560Z,17.85
2022-12-03T06:05:07.758Z,16.92
2022-12-03T06:07:36.437Z,16.98
2022-12-03T06:10:05.057Z,16.85
2022-12-03T06:12:33.689Z,17.55
2022-12-03T06:15:05.739Z,16.98
2022-12-03T06:17:34.846Z,17.88
2022-12-03T06:20:05.832Z,18.17
2022-12-03T06:22:34.558Z,18.55
2022-12-03T06:25:06.649Z,16.75
2022-12-03T06:27:36.780Z,16.25
2022-12-03T06:30:06.393Z,16.98
2022-12-03T06:32:35.238Z,17.27
2022-12-03T06:35:05.567Z,17.90
2022-12-03T06:37:34.211Z,21.42
2022-12-03T06:40:04.228Z,19.10
2022-12-03T06:42:32.657Z,18.20
2022-12-03T06:45:01.244Z,22.52
2022-12-03T06:47:29.720Z,18.50
2022-12-03T06:49:58.349Z,21.95
2022-12-03T06:52:28.895Z,22.40
2022-12-03T06:54:57.590Z,20.48
2022-12-03T06:57:26.406Z,19.83
2022-12-03T06:59:55.240Z,16.55
2022-12-03T07:02:24.111Z,17.33
2022-12-03T07:04:53.157Z,17.48
2022-12-03T07:07:21.952Z,16.00
2022-12-03T07:09:52.014Z,18.38
2022-12-03T07:12:20.767Z,18.88
2022-12-03T07:14:49.368Z,20.55
2022-12-03T07:17:17.988Z,17.02
2022-12-03T07:19:46.610Z,17.85
2022-12-03T07:22:15.402Z,18.67
2022-12-03T07:24:43.891Z,20.42
2022-12-03T07:27:14.312Z,21.35
2022-12-03T07:29:42.875Z,21.35
2022-12-03T07:32:11.750Z,18.90
2022-12-03T07:34:40.328Z,19.15
2022-12-03T07:37:08.965Z,17.70
2022-12-03T07:39:37.669Z,19.20
2022-12-03T07:42:06.359Z,18.17
2022-12-03T07:44:39.264Z,17.77
2022-12-03T07:47:07.849Z,19.87
2022-12-03T07:49:36.359Z,17.05
2022-12-03T07:52:04.914Z,18.50
2022-12-03T07:54:33.471Z,18.20
2022-12-03T07:57:02.162Z,17.35
2022-12-03T07:59:31.438Z,18.27
2022-12-03T08:02:02.768Z,16.55
2022-12-03T08:04:32.673Z,17.83
2022-12-03T08:07:02.630Z,17.48
2022-12-03T08:09:31.654Z,17.42
2022-12-03T08:12:03.201Z,18.17
2022-12-03T08:14:32.989Z,15.98
2022-12-03T08:17:05.763Z,17.08
2022-12-03T08:19:34.563Z,16.95
2022-12-03T08:22:06.289Z,17.27
2022-12-03T08:24:47.455Z,15.55
2022-12-03T08:27:20.724Z,16.65
2022-12-03T08:29:54.407Z,17.17
2022-12-03T08:32:33.480Z,17.08
2022-12-03T08:35:20.272Z,19.20
2022-12-03T08:37:52.487Z,16.70
2022-12-03T08:40:35.912Z,18.10
2022-12-03T08:43:16.931Z,17.80
2022-12-03T08:45:55.618Z,16.17
2022-12-03T08:48:32.998Z,16.90
2022-12-03T08:51:04.666Z,20.30
2022-12-03T08:53:38.622Z,22.50
2022-12-03T08:56:08.842Z,20.50
2022-12-03T08:58:41.802Z,18.83
2022-12-03T09:01:29.296Z,18.23
2022-12-03T09:04:01.729Z,20.25
2022-12-03T09:06:31.723Z,17.48
2022-12-03T09:09:06.384Z,17.83
2022-12-03T09:11:39.939Z,19.98
2022-12-03T09:14:25.059Z,18.30
2022-12-03T09:16:57.158Z,16.85
2022-12-03T09:19:34.356Z,20.20
2022-12-03T09:22:05.868Z,20.67
2022-12-03T09:24:37.892Z,18.55
2022-12-03T09:27:09.466Z,17.73
2022-12-03T09:29:41.218Z,17.40
2022-12-03T09:32:18.092Z,16.65
2022-12-03T09:34:53.751Z,16.27
2022-12-03T09:37:25.696Z,17.25
2022-12-03T09:40:02.144Z,45.42
2022-12-03T09:42:36.586Z,22.05
2022-12-03T09:45:25.854Z,15.90
2022-12-03T09:47:57.464Z,16.50
2022-12-03T09:50:34.835Z,18.10
2022-12-03T09:53:07.509Z,20.35
2022-12-03T09:55:37.165Z,18.38
2022-12-03T09:58:11.802Z,17.48
2022-12-03T10:00:49.451Z,16.80
2022-12-03T10:03:28.184Z,17.02
2022-12-03T10:06:18.141Z,17.10
2022-12-03T10:09:02.984Z,17.83
2022-12-03T10:11:36.740Z,17.63
2022-12-03T10:14:08.093Z,16.70
2022-12-03T10:16:41.475Z,14.13
2022-12-03T10:19:21.026Z,16.00
2022-12-03T10:21:51.063Z,15.77
2022-12-03T10:24:30.103Z,16.13
2022-12-03T10:27:01.131Z,14.98
2022-12-03T10:29:35.191Z,16.45
2022-12-03T10:32:04.372Z,15.32
2022-12-03T10:34:36.056Z,15.60
2022-12-03T10:37:12.630Z,15.50
2022-12-03T10:40:01.196Z,14.88
2022-12-03T10:42:38.955Z,16.08
2022-12-03T10:45:14.301Z,14.13
2022-12-03T10:47:42.773Z,14.27
2022-12-03T10:50:17.779Z,13.65
2022-12-03T10:52:46.791Z,15.23
2022-12-03T10:55:19.798Z,14.43
2022-12-03T10:58:02.102Z,14.43
2022-12-03T11:00:30.584Z,15.15
2022-12-03T11:03:13.708Z,14.93
2022-12-03T11:05:43.602Z,14.87
2022-12-03T11:08:19.289Z,14.15
2022-12-03T11:11:00.111Z,15.52
2022-12-03T11:13:29.874Z,15.20
2022-12-03T11:16:03.183Z,14.10
2022-12-03T11:18:52.811Z,14.35
2022-12-03T11:21:23.483Z,14.82
2022-12-03T11:24:06.716Z,16.35
2022-12-03T11:26:56.766Z,16.33
2022-12-03T11:29:42.699Z,14.23
2022-12-03T11:32:19.268Z,13.85
2022-12-03T11:34:50.994Z,14.80
2022-12-03T11:37:33.838Z,14.88
2022-12-03T11:40:09.831Z,15.13
2022-12-03T11:42:56.489Z,18.35
2022-12-03T11:45:35.709Z,16.83
2022-12-03T11:48:21.371Z,16.13
2022-12-03T11:50:56.971Z,13.90
2022-12-03T11:53:31.224Z,14.85
2022-12-03T11:56:09.100Z,14.68
2022-12-03T11:58:41.167Z,15.45
2022-12-03T12:01:19.883Z,15.27
2022-12-03T12:03:50.347Z,17.25
2022-12-03T12:06:24.434Z,12.90
2022-12-03T12:08:59.752Z,14.05
2022-12-03T12:11:29.034Z,15.05
2022-12-03T12:14:04.221Z,13.98
2022-12-03T12:16:43.876Z,14.40
2022-12-03T12:19:34.913Z,13.48
2022-12-03T12:22:19.202Z,13.27
2022-12-03T12:24:54.561Z,13.27
2022-12-03T12:27:28.347Z,13.80
2022-12-03T12:39:33.739Z,12.98
2022-12-03T12:42:02.376Z,14.10
2022-12-03T12:44:35.100Z,13.82
2022-12-03T12:47:07.878Z,13.68
2022-12-03T12:49:41.716Z,11.40
2022-12-03T12:54:42.933Z,12.25
2022-12-03T12:57:15.681Z,12.63
2022-12-03T12:59:46.934Z,13.15
2022-12-03T13:02:38.678Z,13.32
2022-12-03T13:05:07.777Z,11.90
2022-12-03T13:07:45.173Z,11.60
2022-12-03T13:10:33.971Z,12.00
2022-12-03T13:13:17.692Z,12.20
2022-12-03T13:15:49.070Z,12.18
2022-12-03T13:18:28.450Z,11.65
2022-12-03T13:20:57.217Z,12.63
2022-12-03T13:23:34.808Z,12.73
2022-12-03T13:26:22.282Z,12.32
2022-12-03T13:28:55.569Z,11.40
2022-12-03T13:31:34.371Z,12.13
2022-12-03T13:34:15.137Z,11.02
2022-12-03T13:36:51.979Z,12.13
2022-12-03T13:39:29.250Z,13.90
2022-12-03T13:42:15.332Z,13.30
2022-12-03T13:44:49.574Z,13.20
2022-12-03T13:47:22.796Z,12.35
2022-12-03T13:49:54.893Z,10.65
2022-12-03T13:52:31.184Z,11.98
2022-12-03T13:55:04.329Z,13.85
2022-12-03T13:57:32.851Z,13.20
2022-12-03T14:00:04.021Z,12.68
2022-12-03T14:03:11.010Z,11.02
2022-12-03T14:05:42.282Z,13.30
2022-12-03T14:08:14.172Z,13.85
2022-12-03T14:10:47.212Z,15.23
2022-12-03T14:13:19.176Z,19.63
2022-12-03T14:15:51.658Z,14.23
2022-12-03T14:18:21.622Z,13.48
2022-12-03T14:20:51.781Z,12.18
2022-12-03T14:23:22.941Z,13.95
2022-12-03T14:25:51.650Z,14.50
2022-12-03T14:28:20.133Z,12.70
2022-12-03T14:30:50.304Z,13.75
2022-12-03T14:33:23.914Z,11.75
2022-12-03T14:35:58.806Z,12.68
2022-12-03T14:38:28.384Z,11.55
2022-12-03T14:40:59.349Z,11.68
2022-12-03T14:43:30.207Z,11.57
2022-12-03T14:46:05.697Z,10.48
2022-12-03T14:48:38.496Z,12.07
2022-12-03T14:51:07.201Z,11.25
2022-12-03T14:53:37.925Z,10.93
2022-12-03T14:56:09.491Z,11.13
2022-12-03T14:58:38.083Z,11.18
2022-12-03T15:01:08.291Z,10.63
2022-12-03T15:03:40.073Z,11.00
2022-12-03T15:06:11.606Z,10.20
2022-12-03T15:08:44.862Z,12.00
2022-12-03T15:11:13.440Z,10.38
2022-12-03T15:13:42.274Z,10.90
2022-12-03T15:16:15.320Z,9.45
2022-12-03T15:18:43.967Z,9.48
2022-12-03T15:21:13.959Z,9.05
2022-12-03T15:23:42.521Z,9.05
2022-12-03T15:26:14.128Z,9.88
2022-12-03T15:28:48.369Z,9.07
2022-12-03T15:31:19.064Z,8.88
2022-12-03T15:33:47.868Z,8.20
2022-12-03T15:36:16.940Z,9.00
2022-12-03T15:38:45.653Z,8.10
2022-12-03T15:41:29.428Z,9.32
2022-12-03T15:44:11.729Z,8.30
2022-12-03T15:46:43.384Z,7.85
2022-12-03T15:49:11.912Z,8.20
2022-12-03T15:51:40.332Z,9.30
2022-12-03T15:54:08.836Z,9.57
2022-12-03T15:56:37.872Z,9.27
2022-12-03T15:59:06.716Z,8.45
2022-12-03T16:01:35.714Z,8.30
2022-12-03T16:04:07.051Z,7.78
2022-12-03T16:06:35.932Z,8.85
2022-12-03T16:09:04.384Z,8.98
2022-12-03T16:11:32.963Z,9.05
2022-12-03T16:14:01.963Z,9.07
2022-12-03T16:16:30.547Z,9.68
2022-12-03T16:18:59.116Z,10.00
2022-12-03T16:21:29.367Z,8.32
2022-12-03T16:23:58.444Z,8.85
2022-12-03T16:26:27.019Z,9.50
2022-12-03T16:28:55.540Z,9.30
2022-12-03T16:31:24.207Z,10.15
2022-12-03T16:33:52.751Z,10.18
2022-12-03T16:36:21.278Z,9.48
2022-12-03T16:38:51.244Z,8.60
2022-12-03T16:41:20.072Z,8.32
2022-12-03T16:43:48.749Z,8.77
2022-12-03T16:46:26.093Z,8.95
2022-12-03T16:48:55.652Z,8.10
2022-12-03T16:51:24.338Z,8.80
2022-12-03T16:53:54.918Z,9.45
2022-12-03T16:56:23.548Z,9.75
2022-12-03T16:58:52.157Z,13.02
2022-12-03T17:01:20.932Z,11.93
2022-12-03T17:03:49.466Z,12.98
2022-12-03T17:06:17.899Z,10.35
2022-12-03T17:08:49.664Z,9.27
2022-12-03T17:11:20.496Z,9.70
2022-12-03T17:13:49.375Z,13.38
2022-12-03T17:16:18.064Z,10.30
2022-12-03T17:18:46.727Z,8.98
2022-12-03T17:21:15.297Z,10.45
2022-12-03T17:23:44.807Z,9.38
2022-12-03T17:26:14.564Z,9.50
2022-12-03T17:28:44.457Z,9.82
2022-12-03T17:31:13.104Z,8.90
2022-12-03T17:33:42.087Z,9.10
2022-12-03T17:36:11.052Z,9.82
2022-12-03T17:38:39.794Z,9.70
2022-12-03T17:41:10.134Z,9.95
2022-12-03T17:43:38.618Z,11.35
2022-12-03T17:46:08.977Z,11.23
2022-12-03T17:48:37.733Z,11.20
2022-12-03T17:51:06.407Z,10.15
2022-12-03T17:53:34.895Z,8.18
2022-12-03T17:56:03.880Z,9.57
2022-12-03T17:58:32.365Z,7.90
2022-12-03T18:01:03.082Z,7.85
2022-12-03T18:03:33.927Z,9.20
2022-12-03T18:06:02.609Z,8.77
2022-12-03T18:08:31.255Z,8.88
2022-12-03T18:11:00.346Z,10.32
2022-12-03T18:13:29.215Z,9.23
2022-12-03T18:15:57.873Z,9.85
2022-12-03T18:18:26.663Z,8.98
2022-12-03T18:21:09.475Z,8.45
2022-12-03T18:23:40.997Z,9.73
2022-12-03T18:26:10.444Z,9.73
2022-12-03T18:28:41.384Z,8.50
2022-12-03T18:31:12.718Z,7.95
2022-12-03T18:33:41.496Z,9.05
2022-12-03T18:39:23.180Z,7.50
2022-12-03T18:41:53.368Z,7.60
2022-12-03T18:44:23.312Z,8.18
2022-12-03T18:46:53.902Z,8.77
2022-12-03T18:49:27.085Z,8.85
2022-12-03T18:52:01.142Z,8.80
2022-12-03T18:54:36.470Z,8.65
2022-12-03T18:57:09.044Z,10.15
2022-12-03T18:59:39.641Z,9.88
2022-12-03T19:03:00.639Z,9.05
2022-12-03T19:05:17.512Z,8.82
2022-12-03T19:07:52.739Z,9.10
2022-12-03T19:10:30.965Z,8.88
2022-12-03T19:13:05.022Z,8.00
2022-12-03T19:15:39.340Z,8.82
2022-12-03T19:18:08.567Z,8.63
2022-12-03T19:20:44.557Z,9.20
2022-12-03T19:23:19.301Z,8.95
2022-12-03T19:26:01.456Z,8.65
2022-12-03T19:28:30.433Z,9.98
2022-12-03T19:30:59.755Z,9.38
2022-12-03T19:33:29.775Z,9.98
2022-12-03T19:35:58.946Z,8.88
2022-12-03T19:38:37.684Z,10.43
2022-12-03T19:41:20.157Z,9.75
2022-12-03T19:43:56.814Z,8.65
2022-12-03T19:46:26.899Z,10.27
2022-12-03T19:48:55.894Z,10.13
2022-12-03T19:51:36.327Z,9.57
2022-12-03T19:54:05.436Z,9.57
2022-12-03T19:56:36.211Z,8.65
2022-12-03T19:59:34.771Z,8.52
2022-12-03T20:02:07.782Z,8.43
2022-12-03T20:04:36.551Z,9.52
2022-12-03T20:07:09.437Z,8.32
2022-12-03T20:09:38.171Z,9.87
2022-12-03T20:12:14.089Z,9.43
2022-12-03T20:14:42.754Z,10.20
2022-12-03T20:17:11.423Z,10.82
2022-12-03T20:19:39.989Z,10.35
2022-12-03T20:22:13.965Z,10.90
2022-12-03T20:24:45.470Z,10.48
2022-12-03T20:27:22.857Z,10.73
2022-12-03T20:29:51.905Z,9.63
2022-12-03T20:32:20.799Z,9.10
2022-12-03T20:34:51.165Z,9.32
2022-12-03T20:37:22.246Z,8.95
2022-12-03T20:40:21.834Z,10.20
2022-12-03T20:42:56.842Z,10.98
2022-12-03T20:45:29.558Z,9.93
2022-12-03T20:48:02.729Z,9.32
2022-12-03T20:50:37.577Z,10.07
2022-12-03T20:53:25.154Z,9.60
2022-12-03T20:55:57.256Z,9.52
2022-12-03T20:58:32.329Z,8.80
2022-12-03T21:01:15.383Z,10.05
2022-12-03T21:03:45.855Z,10.13
2022-12-03T21:06:14.562Z,9.32
2022-12-03T21:08:44.548Z,10.35
2022-12-03T21:11:15.481Z,10.18
2022-12-03T21:13:47.978Z,9.60
2022-12-03T21:16:18.639Z,9.73
2022-12-03T21:18:47.610Z,9.32
2022-12-03T21:21:17.310Z,9.15
2022-12-03T21:23:48.988Z,9.05
2022-12-03T21:26:19.292Z,9.60
2022-12-03T21:28:54.669Z,9.90
2022-12-03T21:31:26.654Z,10.18
2022-12-03T21:33:55.572Z,11.75
2022-12-03T21:36:25.247Z,12.75
2022-12-03T21:38:56.025Z,13.82
2022-12-03T21:41:29.979Z,12.93
2022-12-03T21:44:00.159Z,10.43
2022-12-03T21:47:11.088Z,11.77
2022-12-03T21:49:20.460Z,10.57
2022-12-03T21:51:53.708Z,11.75
2022-12-03T21:54:24.006Z,10.95
2022-12-03T21:56:54.400Z,11.07
2022-12-03T21:59:24.519Z,9.48
2022-12-03T22:01:53.704Z,10.38
2022-12-03T22:04:22.488Z,9.93
2022-12-03T22:06:54.361Z,9.95
2022-12-03T22:09:26.410Z,9.95
2022-12-03T22:12:06.098Z,10.95
2022-12-03T22:14:37.474Z,9.20
2022-12-03T22:17:06.188Z,9.70
2022-12-03T22:19:39.737Z,11.18
2022-12-03T22:22:08.551Z,11.05
2022-12-03T22:24:37.351Z,10.50
2022-12-03T22:27:06.120Z,10.10
2022-12-03T22:29:40.026Z,11.38
2022-12-03T22:32:11.699Z,11.38
2022-12-03T22:34:42.532Z,10.55
2022-12-03T22:37:11.705Z,9.73
2022-12-03T22:39:40.302Z,9.60
2022-12-03T22:42:09.058Z,10.60
2022-12-03T22:44:43.820Z,10.23
2022-12-03T22:47:12.557Z,10.15
2022-12-03T22:49:46.941Z,10.88
2022-12-03T22:52:18.696Z,10.02
2022-12-03T22:54:49.633Z,10.32
2022-12-03T22:57:22.521Z,11.20
2022-12-03T22:59:59.698Z,10.90
2022-12-03T23:02:28.428Z,11.05
2022-12-03T23:04:59.673Z,10.02
2022-12-03T23:07:40.768Z,11.02
2022-12-03T23:10:11.011Z,10.68
2022-12-03T23:12:47.107Z,10.75
2022-12-03T23:15:18.617Z,10.43
2022-12-03T23:17:51.122Z,10.43
2022-12-03T23:20:21.680Z,10.45
2022-12-03T23:22:56.916Z,10.23
2022-12-03T23:25:31.104Z,10.57
2022-12-03T23:28:01.489Z,10.35
2022-12-03T23:30:32.715Z,10.82
2022-12-03T23:33:07.211Z,11.13
2022-12-03T23:35:45.444Z,10.80
2022-12-03T23:38:19.573Z,11.65
2022-12-03T23:41:03.414Z,9.75
2022-12-03T23:43:50.972Z,10.98
2022-12-03T23:46:24.073Z,11.30
2022-12-03T23:48:55.954Z,9.15
2022-12-03T23:51:31.914Z,10.10
2022-12-03T23:54:04.844Z,11.13
2022-12-03T23:56:35.380Z,9.63
2022-12-03T23:59:12.696Z,9.45
